Onde está Torre e Solar da Camoeira en Portugal?

Torre e Solar da Camoeira está situado na região Evora em Portugal!

Buscar o nome de uma cidade:

Torre de Peñafiel, Torrente Scabbia, Torrente Raganello, Torre de Castellnou, Torriglia

Aqui você vai encontrar a localização de Torre e Solar da Camoeira em um mapa.
Para ver como ele atualmente parece, abaixo estão algumas fotos da região, com webcams online.
Você também pode encontrar a distância para as principais cidades da região e de cidades do resto do Portugal.

Todos os lugares do mundo chamado .

new

Onde está Torre e Solar da Camoeira no mapa?


Webcams perto Torre e Solar da Camoeira

Comporta: Distrito de - Praia do Carvalhal°.


Comporta: Distrito de - Praia do Carvalhal° - Dia
Actual
Comporta: Distrito de - Praia do Carvalhal° - Actual

Sines Municipality: Praia de Sao Torpes.


Sines Municipality: Praia de Sao Torpes - Dia
Actual
Sines Municipality: Praia de Sao Torpes - Actual

Benavente > North-East: AIrport, METAR: BENAV 180005Z 36004KT 17/14 Q1015.


Benavente > North-East: AIrport, METAR: BENAV 180005Z 36004KT 17/14 Q1015 - Dia
Actual
Benavente > North-East: AIrport, METAR: BENAV 180005Z 36004KT 17/14 Q1015 - Actual

Webcams provided by webcams.travel

Distâncias

Onde está Torre e Solar da Camoeira em relação a outros lugares?

Top 10 cidades em Evora e distância de Torre e Solar da Camoeira.

Cidade#Populaçãokmmilhas
Évora145851149
Montemor-o-Novo2128543220
Vendas Novas3112485031
Estremoz493495534
Reguengos de Monsaraz572173723
Redondo658454226
Vila Viçosa754846037
Borba845866037
Adaval9-3522
Agua d' Alte10-4528

Top 10 cidades em Portugal e distância de Torre e Solar da Camoeira.

Cidade # Populaçãokmmilhas
Lisbon151779810666
Porto2249630306190
Amadora317885611773
Braga4121393348216
Setúbal51171098251
Coimbra6106580200124
Queluz710339811773
Funchal8980411035643
Vila Nova de Gaia970810304189
Loures106623011471